createdAt,value
2019-05-21T00:04:28.806Z,12.97
2019-05-21T00:09:35.299Z,12.87
2019-05-21T00:14:40.709Z,12.71
2019-05-21T00:19:46.036Z,12.58
2019-05-21T00:24:51.681Z,12.60
2019-05-21T00:30:33.062Z,12.42
2019-05-21T00:36:15.548Z,12.41
2019-05-21T00:41:57.077Z,12.38
2019-05-21T00:47:02.901Z,12.43
2019-05-21T00:52:09.647Z,12.33
2019-05-21T00:57:16.307Z,12.30
2019-05-21T01:02:21.659Z,12.24
2019-05-21T01:07:27.979Z,12.32
2019-05-21T01:12:33.464Z,12.17
2019-05-21T01:17:40.048Z,11.89
2019-05-21T01:22:45.419Z,11.76
2019-05-21T01:27:51.064Z,11.86
2019-05-21T01:32:57.785Z,12.12
2019-05-21T01:38:03.245Z,12.52
2019-05-21T01:43:09.109Z,12.61
2019-05-21T01:48:14.711Z,12.69
2019-05-21T01:53:20.533Z,12.76
2019-05-21T01:58:27.478Z,12.66
2019-05-21T02:03:32.884Z,12.45
2019-05-21T02:08:38.291Z,12.61
2019-05-21T02:13:45.382Z,12.34
2019-05-21T02:18:52.170Z,12.15
2019-05-21T02:23:57.509Z,12.08
2019-05-21T02:29:03.193Z,12.09
2019-05-21T02:34:08.732Z,12.03
2019-05-21T02:39:14.496Z,11.82
2019-05-21T02:44:20.534Z,11.83
2019-05-21T02:49:25.919Z,11.52
2019-05-21T02:54:40.697Z,11.43
2019-05-21T02:59:39.756Z,11.97
2019-05-21T03:04:45.149Z,11.82
2019-05-21T03:09:51.549Z,11.36
2019-05-21T03:14:57.216Z,11.25
2019-05-21T03:20:07.617Z,11.10
2019-05-21T03:25:21.975Z,11.11
2019-05-21T03:30:27.531Z,11.13
2019-05-21T03:35:32.935Z,11.19
2019-05-21T03:40:38.439Z,11.09
2019-05-21T03:45:43.813Z,11.06
2019-05-21T03:50:50.124Z,11.24
2019-05-21T03:55:56.630Z,11.39
2019-05-21T04:01:02.660Z,11.22
2019-05-21T04:06:08.178Z,11.33
2019-05-21T04:11:13.646Z,11.42
2019-05-21T04:16:40.773Z,11.64
2019-05-21T04:21:46.273Z,11.95
2019-05-21T14:41:22.985Z,22.55
2019-05-21T14:46:59.517Z,22.82
2019-05-21T14:52:15.656Z,23.04
2019-05-21T14:58:10.820Z,23.23
2019-05-21T15:03:29.569Z,22.96
2019-05-21T15:09:19.695Z,22.56
2019-05-21T15:14:35.488Z,22.66
2019-05-21T15:20:23.694Z,22.49
2019-05-21T15:25:50.561Z,22.56
2019-05-21T15:31:11.245Z,22.20
2019-05-21T15:36:36.895Z,22.27
2019-05-21T15:41:54.191Z,22.05
2019-05-21T15:47:20.767Z,22.34
2019-05-21T15:52:54.309Z,22.77
2019-05-21T15:58:10.333Z,22.87
2019-05-21T16:03:27.738Z,22.99
2019-05-21T16:08:50.940Z,23.15
2019-05-21T16:14:05.733Z,23.16
2019-05-21T16:19:37.031Z,22.87
2019-05-21T16:25:26.029Z,23.01
2019-05-21T16:31:16.632Z,23.08
2019-05-21T16:36:30.810Z,23.13
2019-05-21T16:41:44.796Z,23.28
2019-05-21T16:53:31.541Z,23.18
2019-05-21T16:58:45.575Z,22.77
2019-05-21T17:04:23.621Z,22.73
2019-05-21T17:15:13.459Z,22.60
2019-05-21T17:20:24.708Z,22.04
2019-05-21T17:25:33.448Z,21.59
2019-05-21T17:30:41.211Z,21.67
2019-05-21T17:35:48.272Z,21.46
2019-05-21T17:40:54.944Z,21.21
2019-05-21T17:46:09.205Z,21.01
2019-05-21T17:51:19.789Z,21.44
2019-05-21T17:56:27.731Z,21.56
2019-05-21T18:01:39.551Z,21.35
2019-05-21T18:06:55.639Z,21.02
2019-05-21T18:12:03.821Z,21.12
2019-05-21T18:17:20.627Z,20.81
2019-05-21T18:22:30.017Z,21.02
2019-05-21T18:27:37.193Z,21.01
2019-05-21T18:32:43.024Z,20.82
2019-05-21T18:37:51.117Z,20.75
2019-05-21T18:42:58.043Z,20.71
2019-05-21T18:48:06.218Z,20.68
2019-05-21T18:53:21.793Z,20.43
2019-05-21T18:58:40.102Z,20.60
2019-05-21T19:03:46.631Z,20.41
2019-05-21T19:08:53.326Z,20.39
2019-05-21T19:14:01.581Z,20.28
2019-05-21T19:19:09.458Z,20.13
2019-05-21T19:24:18.585Z,19.73
2019-05-21T19:29:26.505Z,19.95
2019-05-21T19:34:36.991Z,19.60
2019-05-21T19:39:46.844Z,19.59
2019-05-21T19:44:52.604Z,19.60
2019-05-21T19:49:58.765Z,19.45
2019-05-21T19:55:06.487Z,19.28
2019-05-21T20:00:15.296Z,19.22
2019-05-21T20:05:21.664Z,19.36
2019-05-21T20:10:33.972Z,19.08
2019-05-21T20:15:41.293Z,18.90
2019-05-21T20:20:48.082Z,18.67
2019-05-21T20:25:56.795Z,18.41
2019-05-21T20:31:05.405Z,18.23
2019-05-21T20:36:11.625Z,18.15
2019-05-21T20:41:20.067Z,18.22
2019-05-21T20:46:30.716Z,18.14
2019-05-21T20:51:37.684Z,17.70
2019-05-21T20:56:44.358Z,17.65
2019-05-21T21:01:50.403Z,17.96
2019-05-21T21:06:56.886Z,17.48
